createdAt,value
2017-01-19T00:00:06.231Z,1035.65
2017-01-19T00:01:14.940Z,1035.67
2017-01-19T00:02:24.832Z,1035.7
2017-01-19T00:03:33.932Z,1035.66
2017-01-19T00:04:44.613Z,1035.61
2017-01-19T00:05:54.109Z,1035.58
2017-01-19T00:07:04.388Z,1035.61
2017-01-19T00:08:14.272Z,1035.54
2017-01-19T00:09:24.163Z,1035.58
2017-01-19T00:10:34.460Z,1035.57
2017-01-19T00:11:44.347Z,1035.55
2017-01-19T00:12:53.466Z,1035.57
2017-01-19T00:14:03.357Z,1035.58
2017-01-19T00:15:12.861Z,1035.6
2017-01-19T00:16:22.353Z,1035.58
2017-01-19T00:17:31.453Z,1035.59
2017-01-19T00:18:40.959Z,1035.6
2017-01-19T00:19:51.751Z,1035.57
2017-01-19T00:21:01.657Z,1035.56
2017-01-19T00:22:11.552Z,1035.57
2017-01-19T00:23:21.832Z,1035.52
2017-01-19T00:24:32.121Z,1035.48
2017-01-19T00:25:42.260Z,1035.52
2017-01-19T00:26:51.760Z,1035.48
2017-01-19T00:28:02.045Z,1035.51
2017-01-19T00:29:12.341Z,1035.51
2017-01-19T00:30:21.832Z,1035.49
2017-01-19T00:31:32.158Z,1035.47
2017-01-19T00:32:42.059Z,1035.47
2017-01-19T00:33:51.556Z,1035.43
2017-01-19T00:35:01.838Z,1035.42
2017-01-19T00:36:11.339Z,1035.4
2017-01-19T00:37:21.230Z,1035.42
2017-01-19T00:38:31.138Z,1035.46
2017-01-19T00:39:41.424Z,1035.51
2017-01-19T00:40:50.916Z,1035.56
2017-01-19T00:42:00.818Z,1035.57
2017-01-19T00:43:10.715Z,1035.58
2017-01-19T00:44:20.601Z,1035.56
2017-01-19T00:45:30.884Z,1035.52
2017-01-19T00:46:40.379Z,1035.52
2017-01-19T00:47:50.678Z,1035.52
2017-01-19T00:49:00.592Z,1035.56
2017-01-19T00:50:10.495Z,1035.54
2017-01-19T00:51:21.012Z,1035.54
2017-01-19T00:52:30.515Z,1035.52
2017-01-19T00:53:40.801Z,1035.47
2017-01-19T00:54:51.477Z,1035.49
2017-01-19T00:56:01.764Z,1035.49
2017-01-19T00:57:12.471Z,1035.46
2017-01-19T00:58:23.145Z,1035.44
2017-01-19T00:59:33.030Z,1035.44
2017-01-19T01:00:42.543Z,1035.43
2017-01-19T01:01:52.866Z,1035.41
2017-01-19T01:03:03.154Z,1035.41
2017-01-19T01:04:13.434Z,1035.48
2017-01-19T01:05:24.114Z,1035.49
2017-01-19T01:06:33.998Z,1035.48
2017-01-19T01:07:43.545Z,1035.44
2017-01-19T01:08:54.579Z,1035.48
2017-01-19T01:10:04.070Z,1035.5
2017-01-19T01:11:13.569Z,1035.49
2017-01-19T01:12:23.477Z,1035.48
2017-01-19T01:13:33.761Z,1035.49
2017-01-19T01:14:43.665Z,1035.43
2017-01-19T01:15:53.563Z,1035.45
2017-01-19T01:17:02.670Z,1035.45
2017-01-19T01:18:12.948Z,1035.42
2017-01-19T01:19:23.222Z,1035.47
2017-01-19T01:20:33.504Z,1035.45
2017-01-19T01:21:42.998Z,1035.43
2017-01-19T01:22:52.887Z,1035.44
2017-01-19T01:24:03.169Z,1035.37
2017-01-19T01:25:13.459Z,1035.39
2017-01-19T01:26:23.744Z,1035.42
2017-01-19T01:27:33.236Z,1035.41
2017-01-19T01:28:43.138Z,1035.41
2017-01-19T01:29:53.420Z,1035.46
2017-01-19T01:31:03.706Z,1035.46
2017-01-19T01:32:13.596Z,1035.46
2017-01-19T01:33:23.484Z,1035.45
2017-01-19T01:34:33.406Z,1035.41
2017-01-19T01:35:43.696Z,1035.45
2017-01-19T01:36:53.581Z,1035.39
2017-01-19T01:38:03.462Z,1035.42
2017-01-19T01:39:12.957Z,1035.4
2017-01-19T01:40:22.853Z,1035.41
2017-01-19T01:41:32.746Z,1035.4
2017-01-19T01:42:43.430Z,1035.38
2017-01-19T01:43:52.926Z,1035.38
2017-01-19T01:45:02.806Z,1035.38
2017-01-19T01:46:12.698Z,1035.36
2017-01-19T01:47:22.973Z,1035.4
2017-01-19T01:48:32.861Z,1035.42
2017-01-19T01:49:43.152Z,1035.39
2017-01-19T01:50:53.066Z,1035.35
2017-01-19T01:52:03.351Z,1035.38
2017-01-19T01:53:13.231Z,1035.38
2017-01-19T01:54:23.514Z,1035.42
2017-01-19T01:55:33.410Z,1035.37
2017-01-19T01:56:43.292Z,1035.33
2017-01-19T01:57:53.592Z,1035.34
2017-01-19T01:59:03.905Z,1035.33
2017-01-19T02:00:13.399Z,1035.3
2017-01-19T02:01:23.697Z,1035.32
2017-01-19T02:02:33.978Z,1035.28
2017-01-19T02:03:43.856Z,1035.31
2017-01-19T02:04:53.353Z,1035.33
2017-01-19T02:06:03.247Z,1035.26
2017-01-19T02:07:13.533Z,1035.26
2017-01-19T02:08:23.031Z,1035.23
2017-01-19T02:09:32.938Z,1035.23
2017-01-19T02:10:43.219Z,1035.21
2017-01-19T02:11:53.119Z,1035.24
2017-01-19T02:13:02.612Z,1035.26
2017-01-19T02:14:13.294Z,1035.28
2017-01-19T02:15:23.573Z,1035.29
2017-01-19T02:16:32.689Z,1035.3
2017-01-19T02:17:42.606Z,1035.34
2017-01-19T02:18:52.933Z,1035.28
2017-01-19T02:20:02.821Z,1035.27
2017-01-19T02:21:13.103Z,1035.25
2017-01-19T02:22:23.029Z,1035.22
2017-01-19T02:23:32.529Z,1035.21
2017-01-19T02:24:42.819Z,1035.25
2017-01-19T02:25:53.498Z,1035.26
2017-01-19T02:27:03.396Z,1035.31
2017-01-19T02:28:13.288Z,1035.28
2017-01-19T02:29:23.958Z,1035.27
2017-01-19T02:30:33.466Z,1035.3
2017-01-19T02:31:43.753Z,1035.26
2017-01-19T02:32:53.260Z,1035.3
2017-01-19T02:34:02.760Z,1035.27
2017-01-19T02:35:13.048Z,1035.31
2017-01-19T02:36:22.937Z,1035.27
2017-01-19T02:37:33.215Z,1035.34
2017-01-19T02:38:43.502Z,1035.32
2017-01-19T02:39:53.390Z,1035.32
2017-01-19T02:41:04.081Z,1035.32
2017-01-19T02:42:14.760Z,1035.31
2017-01-19T02:43:24.651Z,1035.29
2017-01-19T02:44:34.570Z,1035.28
2017-01-19T02:45:44.853Z,1035.27
2017-01-19T02:46:55.131Z,1035.23
2017-01-19T02:48:05.415Z,1035.25
2017-01-19T02:49:16.089Z,1035.23
2017-01-19T02:50:25.984Z,1035.27
2017-01-19T02:51:35.877Z,1035.3
2017-01-19T02:52:46.156Z,1035.3
2017-01-19T02:53:56.050Z,1035.36
2017-01-19T02:55:05.943Z,1035.32
2017-01-19T02:56:16.235Z,1035.35
2017-01-19T02:57:26.918Z,1035.3
2017-01-19T02:58:36.402Z,1035.29
2017-01-19T02:59:46.301Z,1035.28
2017-01-19T03:00:56.588Z,1035.28
2017-01-19T03:02:06.481Z,1035.31
2017-01-19T03:03:16.370Z,1035.3
2017-01-19T03:04:26.657Z,1035.31
2017-01-19T03:05:37.340Z,1035.31
2017-01-19T03:06:47.626Z,1035.37
2017-01-19T03:07:57.122Z,1035.35
2017-01-19T03:09:07.412Z,1035.37
2017-01-19T03:10:17.697Z,1035.39
2017-01-19T03:11:28.371Z,1035.37
2017-01-19T03:12:38.654Z,1035.35
2017-01-19T03:13:48.150Z,1035.37
2017-01-19T03:14:57.636Z,1035.36
2017-01-19T03:16:07.530Z,1035.35
2017-01-19T03:17:17.420Z,1035.38
2017-01-19T03:18:27.311Z,1035.35
2017-01-19T03:19:37.194Z,1035.33
2017-01-19T03:20:47.472Z,1035.38
2017-01-19T03:21:57.360Z,1035.34
2017-01-19T03:23:07.249Z,1035.36
2017-01-19T03:24:17.527Z,1035.37
2017-01-19T03:25:27.808Z,1035.37
2017-01-19T03:26:37.701Z,1035.33
2017-01-19T03:27:47.590Z,1035.32
2017-01-19T03:28:57.878Z,1035.27
2017-01-19T03:30:08.166Z,1035.28
2017-01-19T03:31:18.447Z,1035.28
2017-01-19T03:32:28.728Z,1035.26
2017-01-19T03:33:38.228Z,1035.25
2017-01-19T03:34:48.118Z,1035.28
2017-01-19T03:35:58.805Z,1035.24
2017-01-19T03:37:08.290Z,1035.29
2017-01-19T03:38:18.574Z,1035.24
2017-01-19T03:39:28.080Z,1035.22
2017-01-19T03:40:37.973Z,1035.19
2017-01-19T03:41:47.467Z,1035.15
2017-01-19T03:42:57.745Z,1035.15
2017-01-19T03:44:08.023Z,1035.17
2017-01-19T03:45:18.303Z,1035.15
2017-01-19T03:46:27.801Z,1035.16
2017-01-19T03:47:37.299Z,1035.14
2017-01-19T03:48:47.594Z,1035.1
2017-01-19T03:49:57.876Z,1035.03
2017-01-19T03:51:07.764Z,1035
2017-01-19T03:52:18.045Z,1035.01
2017-01-19T03:53:28.742Z,1035.02
2017-01-19T03:54:38.248Z,1035.05
2017-01-19T03:55:48.134Z,1035.08
2017-01-19T03:56:57.621Z,1035.09
2017-01-19T03:58:07.517Z,1035.04
2017-01-19T03:59:16.621Z,1035.1
2017-01-19T04:00:26.528Z,1035.07
2017-01-19T04:01:36.023Z,1035.08
2017-01-19T04:02:45.515Z,1035.11
2017-01-19T04:03:55.785Z,1035.06
2017-01-19T04:05:06.075Z,1035.06
2017-01-19T04:06:17.004Z,1035.05
2017-01-19T04:07:26.897Z,1035.04
2017-01-19T04:08:35.605Z,1035.1
2017-01-19T04:09:45.892Z,1035.04
2017-01-19T04:10:55.790Z,1035.04
2017-01-19T04:12:05.698Z,1035.07
2017-01-19T04:13:15.192Z,1035.08
2017-01-19T04:14:24.680Z,1035.11
2017-01-19T04:15:34.165Z,1035.07
2017-01-19T04:16:44.051Z,1035.05
2017-01-19T04:17:53.941Z,1035.07
2017-01-19T04:19:03.439Z,1035.06
2017-01-19T04:20:13.332Z,1035.07
2017-01-19T04:21:23.641Z,1035.07
2017-01-19T04:22:33.942Z,1035.12
2017-01-19T04:23:44.628Z,1035.05
2017-01-19T04:24:53.331Z,1035.02
2017-01-19T04:26:03.217Z,1035.02
2017-01-19T04:27:13.892Z,1035
2017-01-19T04:28:24.172Z,1035
2017-01-19T04:29:34.869Z,1035
2017-01-19T04:30:44.364Z,1034.98
2017-01-19T04:31:53.853Z,1034.98
2017-01-19T04:33:03.757Z,1034.98
2017-01-19T04:34:12.862Z,1034.97
2017-01-19T04:35:22.358Z,1034.99
2017-01-19T04:36:32.635Z,1034.97
2017-01-19T04:37:42.913Z,1034.99
2017-01-19T04:38:53.593Z,1034.98
2017-01-19T04:40:04.271Z,1034.99
2017-01-19T04:41:14.156Z,1035.03
2017-01-19T04:42:24.845Z,1035
2017-01-19T04:43:35.139Z,1034.97
2017-01-19T04:44:44.637Z,1034.97
2017-01-19T04:45:54.533Z,1034.96
2017-01-19T04:47:04.430Z,1034.95
2017-01-19T04:48:13.920Z,1034.92
2017-01-19T04:49:23.803Z,1034.9
2017-01-19T04:50:33.299Z,1034.85
2017-01-19T04:51:43.979Z,1034.89
2017-01-19T04:52:53.868Z,1034.84
2017-01-19T04:54:04.181Z,1034.81
2017-01-19T04:55:14.075Z,1034.82
2017-01-19T04:56:23.182Z,1034.79
2017-01-19T04:57:33.473Z,1034.75
2017-01-19T04:58:44.159Z,1034.67
2017-01-19T04:59:54.840Z,1034.67
2017-01-19T05:01:05.123Z,1034.66
2017-01-19T05:02:15.413Z,1034.63
2017-01-19T05:03:26.088Z,1034.59
2017-01-19T05:04:35.974Z,1034.64
2017-01-19T05:05:46.278Z,1034.62
2017-01-19T05:06:56.175Z,1034.63
2017-01-19T05:08:06.484Z,1034.59
2017-01-19T05:09:16.382Z,1034.57
2017-01-19T05:10:26.277Z,1034.53
2017-01-19T05:11:35.773Z,1034.53
2017-01-19T05:12:45.667Z,1034.51
2017-01-19T05:13:55.554Z,1034.48
2017-01-19T05:15:05.043Z,1034.49
2017-01-19T05:16:15.346Z,1034.53
2017-01-19T05:17:24.838Z,1034.53
2017-01-19T05:18:34.719Z,1034.56
2017-01-19T05:19:44.230Z,1034.52
2017-01-19T05:20:54.113Z,1034.52
2017-01-19T05:22:04.003Z,1034.49
2017-01-19T05:23:14.300Z,1034.44
2017-01-19T05:24:24.591Z,1034.41
2017-01-19T05:25:34.099Z,1034.4
2017-01-19T05:26:44.783Z,1034.36
2017-01-19T05:27:54.273Z,1034.36
2017-01-19T05:29:04.971Z,1034.33
2017-01-19T05:30:14.869Z,1034.33
2017-01-19T05:31:25.150Z,1034.36
2017-01-19T05:32:35.061Z,1034.43
2017-01-19T05:33:45.788Z,1034.47
2017-01-19T05:34:56.136Z,1034.47
2017-01-19T05:36:06.036Z,1034.53
2017-01-19T05:37:16.328Z,1034.5
2017-01-19T05:38:26.214Z,1034.54
2017-01-19T05:39:35.713Z,1034.53
2017-01-19T05:40:45.216Z,1034.52
2017-01-19T05:41:55.102Z,1034.54
2017-01-19T05:43:05.400Z,1034.48
2017-01-19T05:44:15.689Z,1034.48
2017-01-19T05:45:26.381Z,1034.49
2017-01-19T05:46:35.872Z,1034.47
2017-01-19T05:47:45.388Z,1034.46
2017-01-19T05:48:55.699Z,1034.47
2017-01-19T05:50:05.201Z,1034.5
2017-01-19T05:51:15.478Z,1034.5
2017-01-19T05:52:25.367Z,1034.48
2017-01-19T05:53:35.256Z,1034.44
2017-01-19T05:54:45.144Z,1034.49
2017-01-19T05:55:54.707Z,1034.48
2017-01-19T05:57:04.596Z,1034.44
2017-01-19T05:58:15.289Z,1034.44
2017-01-19T05:59:25.608Z,1034.4
2017-01-19T06:00:35.916Z,1034.38
2017-01-19T06:01:46.204Z,1034.35
2017-01-19T06:02:56.481Z,1034.37
2017-01-19T06:04:06.783Z,1034.4
2017-01-19T06:05:16.672Z,1034.45
2017-01-19T06:06:26.562Z,1034.45
2017-01-19T06:07:36.474Z,1034.4
2017-01-19T06:08:45.971Z,1034.42
2017-01-19T06:09:55.857Z,1034.39
2017-01-19T06:11:06.144Z,1034.43
2017-01-19T06:12:16.437Z,1034.45
2017-01-19T06:13:26.724Z,1034.44
2017-01-19T06:14:37.410Z,1034.44
2017-01-19T06:15:47.691Z,1034.45
2017-01-19T06:16:58.378Z,1034.48
2017-01-19T06:18:09.045Z,1034.52
2017-01-19T06:19:19.730Z,1034.53
2017-01-19T06:20:30.018Z,1034.56
2017-01-19T06:21:39.916Z,1034.58
2017-01-19T06:22:50.607Z,1034.57
2017-01-19T06:24:00.506Z,1034.56
2017-01-19T06:25:10.014Z,1034.56
2017-01-19T06:26:20.305Z,1034.56
2017-01-19T06:27:30.196Z,1034.58
2017-01-19T06:28:40.089Z,1034.54
2017-01-19T06:29:50.381Z,1034.55
2017-01-19T06:31:00.661Z,1034.55
2017-01-19T06:32:11.345Z,1034.59
2017-01-19T06:33:21.629Z,1034.58
2017-01-19T06:34:31.518Z,1034.63
2017-01-19T06:35:42.202Z,1034.64
2017-01-19T06:36:51.711Z,1034.66
2017-01-19T06:38:01.214Z,1034.73
2017-01-19T06:39:11.495Z,1034.67
2017-01-19T06:40:21.791Z,1034.64
2017-01-19T06:41:31.295Z,1034.64
2017-01-19T06:42:41.586Z,1034.58
2017-01-19T06:43:51.884Z,1034.64
2017-01-19T06:45:01.004Z,1034.57
2017-01-19T06:46:10.506Z,1034.56
2017-01-19T06:47:20.791Z,1034.58
2017-01-19T06:48:30.683Z,1034.55
2017-01-19T06:49:40.581Z,1034.58
2017-01-19T06:50:50.882Z,1034.6
2017-01-19T06:52:00.798Z,1034.55
2017-01-19T06:53:10.697Z,1034.56
2017-01-19T06:54:20.666Z,1034.54
2017-01-19T06:55:31.355Z,1034.54
2017-01-19T06:56:42.035Z,1034.54
2017-01-19T06:57:52.321Z,1034.6
2017-01-19T06:59:02.608Z,1034.57
2017-01-19T07:00:13.150Z,1034.59
2017-01-19T07:01:23.428Z,1034.58
2017-01-19T07:02:33.712Z,1034.58
2017-01-19T07:03:44.018Z,1034.62
2017-01-19T07:04:54.702Z,1034.63
2017-01-19T07:06:05.024Z,1034.65
2017-01-19T07:07:15.723Z,1034.67
2017-01-19T07:08:26.424Z,1034.71
2017-01-19T07:09:36.728Z,1034.75
2017-01-19T07:10:46.655Z,1034.72
2017-01-19T07:11:57.415Z,1034.76
2017-01-19T07:13:06.937Z,1034.83
2017-01-19T07:14:16.838Z,1034.86
2017-01-19T07:15:27.784Z,1034.89
2017-01-19T07:16:38.490Z,1034.88
2017-01-19T07:17:48.426Z,1034.88
2017-01-19T07:18:59.149Z,1034.85
2017-01-19T07:20:09.465Z,1034.83
2017-01-19T07:21:19.007Z,1034.85
2017-01-19T07:22:28.972Z,1034.8
2017-01-19T07:23:38.885Z,1034.77
2017-01-19T07:24:49.572Z,1034.83
2017-01-19T07:25:59.506Z,1034.85
2017-01-19T07:27:10.202Z,1034.85
2017-01-19T07:28:20.505Z,1034.84
2017-01-19T07:29:31.201Z,1034.89
2017-01-19T07:30:41.514Z,1034.85
2017-01-19T07:31:52.199Z,1034.8
2017-01-19T07:33:02.508Z,1034.76
2017-01-19T07:34:12.803Z,1034.78
2017-01-19T07:35:23.099Z,1034.77
2017-01-19T07:36:33.423Z,1034.78
2017-01-19T07:37:42.942Z,1034.85
2017-01-19T07:38:52.852Z,1034.81
2017-01-19T07:40:03.793Z,1034.82
2017-01-19T07:41:14.539Z,1034.82
2017-01-19T07:42:25.215Z,1034.86
2017-01-19T07:43:35.534Z,1034.88
2017-01-19T07:44:45.427Z,1034.85
2017-01-19T07:45:54.939Z,1034.89
2017-01-19T07:47:05.489Z,1034.88
2017-01-19T07:48:16.209Z,1034.89
2017-01-19T07:49:26.503Z,1034.89
2017-01-19T07:50:36.788Z,1034.87
2017-01-19T07:51:47.476Z,1034.91
2017-01-19T07:52:57.458Z,1034.82
2017-01-19T07:54:08.174Z,1034.83
2017-01-19T07:55:18.483Z,1034.81
2017-01-19T07:56:28.676Z,1034.8
2017-01-19T07:57:38.588Z,1034.85
2017-01-19T07:58:49.297Z,1034.88
2017-01-19T08:00:00.005Z,1034.92
2017-01-19T08:01:10.294Z,1034.92
2017-01-19T08:02:20.205Z,1034.93
2017-01-19T08:03:30.141Z,1034.94
2017-01-19T08:04:40.103Z,1034.91
2017-01-19T08:05:50.469Z,1034.91
2017-01-19T08:07:00.822Z,1034.87
2017-01-19T08:08:11.140Z,1034.9
2017-01-19T08:09:21.453Z,1034.9
2017-01-19T08:10:30.974Z,1034.93
2017-01-19T08:11:41.008Z,1034.92
2017-01-19T08:12:51.325Z,1035
2017-01-19T08:14:02.063Z,1034.99
2017-01-19T08:15:11.962Z,1035.02
2017-01-19T08:16:22.725Z,1035.01
2017-01-19T08:17:33.424Z,1035.01
2017-01-19T08:18:44.196Z,1035.06
2017-01-19T08:19:54.110Z,1035.09
2017-01-19T08:21:04.403Z,1035.07
2017-01-19T08:22:14.324Z,1035.08
2017-01-19T08:23:24.617Z,1035.09
2017-01-19T08:24:34.918Z,1035.1
2017-01-19T08:25:44.957Z,1035.08
2017-01-19T08:26:55.764Z,1035.07
2017-01-19T08:28:06.071Z,1035.06
2017-01-19T08:29:17.488Z,1035.06
2017-01-19T08:30:27.807Z,1035.08
2017-01-19T08:31:38.127Z,1035
2017-01-19T08:32:48.068Z,1035.05
2017-01-19T08:33:58.379Z,1035
2017-01-19T08:35:08.702Z,1035.03
2017-01-19T08:36:19.290Z,1035.06
2017-01-19T08:37:29.581Z,1035
2017-01-19T08:38:40.275Z,1035.03
2017-01-19T08:39:51.007Z,1034.99
2017-01-19T08:41:01.344Z,1034.99
2017-01-19T08:42:12.035Z,1035.04
2017-01-19T08:43:22.757Z,1035.01
2017-01-19T08:44:32.697Z,1034.99
2017-01-19T08:45:43.404Z,1034.96
2017-01-19T08:46:54.078Z,1034.94
2017-01-19T08:48:04.791Z,1034.97
2017-01-19T08:49:15.484Z,1034.97
2017-01-19T08:50:25.787Z,1034.97
2017-01-19T08:51:35.310Z,1035.04
2017-01-19T08:52:45.271Z,1035.06
2017-01-19T08:53:55.215Z,1035.02
2017-01-19T08:55:05.922Z,1035.01
2017-01-19T08:56:16.234Z,1035.07
2017-01-19T08:57:26.976Z,1035.14
2017-01-19T08:58:37.316Z,1035.16
2017-01-19T08:59:47.625Z,1035.22
2017-01-19T09:00:58.341Z,1035.13
2017-01-19T09:02:08.241Z,1035.12
2017-01-19T09:03:18.584Z,1035.07
2017-01-19T09:04:28.563Z,1035.1
2017-01-19T09:05:38.515Z,1035.09
2017-01-19T09:06:49.281Z,1035.15
2017-01-19T09:07:59.183Z,1035.2
2017-01-19T09:09:09.103Z,1035.2
2017-01-19T09:10:19.874Z,1035.17
2017-01-19T09:11:30.580Z,1035.13
2017-01-19T09:12:40.881Z,1035.15
2017-01-19T09:13:51.179Z,1035.11
2017-01-19T09:15:01.457Z,1035.11
2017-01-19T09:16:11.761Z,1035.18
2017-01-19T09:17:21.265Z,1035.15
2017-01-19T09:18:31.561Z,1035.17
2017-01-19T09:19:41.461Z,1035.18
2017-01-19T09:20:52.170Z,1035.19
2017-01-19T09:22:01.695Z,1035.17
2017-01-19T09:23:12.003Z,1035.19
2017-01-19T09:24:22.734Z,1035.2
2017-01-19T09:25:32.635Z,1035.17
2017-01-19T09:26:42.549Z,1035.18
2017-01-19T09:27:52.855Z,1035.2
2017-01-19T09:29:03.177Z,1035.18
2017-01-19T09:30:13.856Z,1035.15
2017-01-19T09:31:24.148Z,1035.14
2017-01-19T09:32:34.071Z,1035.15
2017-01-19T09:33:43.592Z,1035.22
2017-01-19T09:34:54.278Z,1035.21
2017-01-19T09:36:04.567Z,1035.22
2017-01-19T09:37:14.073Z,1035.21
2017-01-19T09:38:25.575Z,1035.22
2017-01-19T09:39:35.089Z,1035.2
2017-01-19T09:40:45.372Z,1035.17
2017-01-19T09:41:55.279Z,1035.23
2017-01-19T09:43:05.578Z,1035.22
2017-01-19T09:44:15.483Z,1035.21
2017-01-19T09:45:25.776Z,1035.24
2017-01-19T09:46:36.077Z,1035.22
2017-01-19T09:47:46.780Z,1035.29
2017-01-19T09:48:56.693Z,1035.26
2017-01-19T09:50:06.995Z,1035.24
2017-01-19T09:51:16.500Z,1035.22
2017-01-19T09:52:26.007Z,1035.19
2017-01-19T09:53:35.930Z,1035.16
2017-01-19T09:54:46.245Z,1035.1
2017-01-19T09:55:56.156Z,1035.06
2017-01-19T09:57:05.686Z,1035.13
2017-01-19T09:58:15.204Z,1035.16
2017-01-19T09:59:25.113Z,1035.19
2017-01-19T10:00:35.055Z,1035.13
2017-01-19T10:01:45.753Z,1035.15
2017-01-19T10:02:55.655Z,1035.07
2017-01-19T10:04:06.007Z,1035.12
2017-01-19T10:05:16.355Z,1035.13
2017-01-19T10:06:26.668Z,1035.11
2017-01-19T10:07:37.018Z,1035.1
2017-01-19T10:08:46.944Z,1035.14
2017-01-19T10:09:57.677Z,1035.25
2017-01-19T10:11:08.424Z,1035.18
2017-01-19T10:12:18.724Z,1035.18
2017-01-19T10:13:29.023Z,1035.22
2017-01-19T10:14:39.350Z,1035.13
2017-01-19T10:15:49.883Z,1035.16
2017-01-19T10:17:00.192Z,1035.19
2017-01-19T10:18:10.487Z,1035.19
2017-01-19T10:19:21.073Z,1035.22
2017-01-19T10:20:30.978Z,1035.15
2017-01-19T10:21:40.879Z,1035.14
2017-01-19T10:22:51.575Z,1035.09
2017-01-19T10:24:01.478Z,1035.13
2017-01-19T10:25:11.777Z,1035.11
2017-01-19T10:26:22.463Z,1035.17
2017-01-19T10:27:32.362Z,1035.1
2017-01-19T10:28:42.277Z,1035.06
2017-01-19T10:29:52.222Z,1035.05
2017-01-19T10:31:01.759Z,1035.01
2017-01-19T10:32:11.654Z,1034.99
2017-01-19T10:33:22.339Z,1035.07
2017-01-19T10:34:32.648Z,1035.08
2017-01-19T10:35:43.366Z,1035.07
2017-01-19T10:36:53.681Z,1035.07
2017-01-19T10:38:03.994Z,1035.03
2017-01-19T10:39:14.329Z,1035.04
2017-01-19T10:40:25.019Z,1035.04
2017-01-19T10:41:35.333Z,1035.06
2017-01-19T10:42:45.237Z,1035
2017-01-19T10:43:55.556Z,1034.98
2017-01-19T10:45:06.252Z,1034.94
2017-01-19T10:46:16.779Z,1035.02
2017-01-19T10:47:27.070Z,1035.04
2017-01-19T10:48:37.777Z,1035.04
2017-01-19T10:49:48.082Z,1035.05
2017-01-19T10:50:58.788Z,1035.04
2017-01-19T10:52:09.153Z,1035.02
2017-01-19T10:53:19.843Z,1035.01
2017-01-19T10:54:30.158Z,1035.02
2017-01-19T10:55:40.065Z,1034.95
2017-01-19T10:56:50.771Z,1034.95
2017-01-19T10:58:00.828Z,1034.95
2017-01-19T10:59:11.534Z,1034.98
2017-01-19T11:00:21.897Z,1034.95
2017-01-19T11:01:31.923Z,1034.97
2017-01-19T11:02:42.621Z,1034.98
2017-01-19T11:03:52.541Z,1034.94
2017-01-19T11:05:03.249Z,1034.9
2017-01-19T11:06:13.965Z,1034.84
2017-01-19T11:07:24.658Z,1034.84
2017-01-19T11:08:35.368Z,1034.81
2017-01-19T11:09:45.533Z,1034.74
2017-01-19T11:10:56.264Z,1034.76
2017-01-19T11:12:06.972Z,1034.73
2017-01-19T11:13:17.669Z,1034.75
2017-01-19T11:14:28.376Z,1034.7
2017-01-19T11:15:38.759Z,1034.71
2017-01-19T11:16:49.453Z,1034.74
2017-01-19T11:17:59.377Z,1034.74
2017-01-19T11:19:09.724Z,1034.71
2017-01-19T11:20:19.736Z,1034.69
2017-01-19T11:21:30.462Z,1034.64
2017-01-19T11:22:41.181Z,1034.6
2017-01-19T11:23:51.911Z,1034.55
2017-01-19T11:25:02.235Z,1034.58
2017-01-19T11:26:12.564Z,1034.55
2017-01-19T11:27:22.523Z,1034.59
2017-01-19T11:28:32.429Z,1034.61
2017-01-19T11:29:43.125Z,1034.62
2017-01-19T11:30:53.827Z,1034.61
2017-01-19T11:32:04.537Z,1034.58
2017-01-19T11:33:14.862Z,1034.53
2017-01-19T11:34:25.163Z,1034.43
2017-01-19T11:35:35.093Z,1034.46
2017-01-19T11:36:45.839Z,1034.4
2017-01-19T11:37:55.773Z,1034.44
2017-01-19T11:39:05.687Z,1034.42
2017-01-19T11:40:15.984Z,1034.4
2017-01-19T11:41:25.498Z,1034.45
2017-01-19T11:42:35.809Z,1034.43
2017-01-19T11:43:45.711Z,1034.46
2017-01-19T11:44:55.606Z,1034.43
2017-01-19T11:46:06.306Z,1034.38
2017-01-19T11:47:16.203Z,1034.36
2017-01-19T11:48:26.528Z,1034.29
2017-01-19T11:49:37.212Z,1034.28
2017-01-19T11:50:47.889Z,1034.24
2017-01-19T11:51:58.611Z,1034.2
2017-01-19T11:53:08.914Z,1034.23
2017-01-19T11:54:19.205Z,1034.19
2017-01-19T11:55:29.904Z,1034.21
2017-01-19T11:56:40.203Z,1034.15
2017-01-19T11:57:50.890Z,1034.19
2017-01-19T11:59:00.790Z,1034.24
2017-01-19T12:00:10.322Z,1034.19
2017-01-19T12:01:20.612Z,1034.14
2017-01-19T12:02:30.899Z,1034.14
2017-01-19T12:03:40.396Z,1034.12
2017-01-19T12:04:50.701Z,1034.14
2017-01-19T12:06:00.995Z,1034.12
2017-01-19T12:07:10.493Z,1034.12
2017-01-19T12:08:21.211Z,1034.09
2017-01-19T12:09:31.519Z,1034.1
2017-01-19T12:10:41.044Z,1034.07
2017-01-19T12:11:51.813Z,1034.09
2017-01-19T12:13:02.173Z,1034.09
2017-01-19T12:14:12.859Z,1034.07
2017-01-19T12:15:23.152Z,1034.03
2017-01-19T12:16:33.873Z,1034.04
2017-01-19T12:17:44.173Z,1033.98
2017-01-19T12:18:54.890Z,1033.97
2017-01-19T12:20:04.816Z,1033.95
2017-01-19T12:21:15.509Z,1034
2017-01-19T12:22:26.202Z,1034.06
2017-01-19T12:23:36.518Z,1034.1
2017-01-19T12:24:46.843Z,1034.09
2017-01-19T12:25:57.530Z,1034.11
2017-01-19T12:27:08.245Z,1034.11
2017-01-19T12:28:18.144Z,1034.08
2017-01-19T12:29:28.042Z,1034.13
2017-01-19T12:30:37.980Z,1034.11
2017-01-19T12:31:48.278Z,1034.07
2017-01-19T12:32:58.577Z,1034.08
2017-01-19T12:34:07.691Z,1034.06
2017-01-19T12:35:17.990Z,1034.04
2017-01-19T12:36:28.720Z,1034.06
2017-01-19T12:37:39.434Z,1034
2017-01-19T12:38:50.135Z,1033.95
2017-01-19T12:40:00.428Z,1034.01
2017-01-19T12:41:10.621Z,1033.99
2017-01-19T12:42:20.893Z,1034.04
2017-01-19T12:43:31.183Z,1033.99
2017-01-19T12:44:41.085Z,1034.04
2017-01-19T12:45:51.788Z,1034.03
2017-01-19T12:47:01.698Z,1034.05
2017-01-19T12:48:11.993Z,1034.05
2017-01-19T12:49:22.701Z,1034.09
2017-01-19T12:50:33.008Z,1034.08
2017-01-19T12:51:43.285Z,1034.12
2017-01-19T12:52:53.573Z,1034.12
2017-01-19T12:54:03.895Z,1034.1
2017-01-19T12:55:13.418Z,1034.07
2017-01-19T12:56:24.172Z,1034.06
2017-01-19T12:57:34.482Z,1034.01
2017-01-19T12:58:44.872Z,1033.99
2017-01-19T12:59:55.179Z,1033.97
2017-01-19T13:01:05.103Z,1034.02
2017-01-19T13:02:15.800Z,1033.99
2017-01-19T13:03:25.708Z,1034.01
2017-01-19T13:04:35.648Z,1033.99
2017-01-19T13:05:45.963Z,1033.95
2017-01-19T13:06:56.638Z,1033.95
2017-01-19T13:08:07.330Z,1033.96
2017-01-19T13:09:17.879Z,1033.91
2017-01-19T13:10:28.211Z,1033.94
2017-01-19T13:11:38.517Z,1033.99
2017-01-19T13:12:48.840Z,1033.98
2017-01-19T13:13:59.530Z,1034
2017-01-19T13:15:10.236Z,1033.94
2017-01-19T13:16:20.951Z,1033.99
2017-01-19T13:17:31.329Z,1033.94
2017-01-19T13:18:41.646Z,1033.98
2017-01-19T13:19:51.555Z,1033.98
2017-01-19T13:21:01.466Z,1033.97
2017-01-19T13:22:10.599Z,1034.05
2017-01-19T13:23:20.907Z,1034.07
2017-01-19T13:24:30.823Z,1034.07
2017-01-19T13:25:41.513Z,1034.11
2017-01-19T13:26:52.205Z,1034.05
2017-01-19T13:28:02.493Z,1034.05
2017-01-19T13:29:12.398Z,1034.01
2017-01-19T13:30:22.712Z,1034.03
2017-01-19T13:31:33.005Z,1034.01
2017-01-19T13:32:43.312Z,1034.03
2017-01-19T13:33:53.209Z,1034.06
2017-01-19T13:35:03.916Z,1034
2017-01-19T13:36:14.218Z,1034
2017-01-19T13:37:24.113Z,1033.97
2017-01-19T13:38:34.004Z,1033.99
2017-01-19T13:39:45.008Z,1033.95
2017-01-19T13:40:54.771Z,1033.96
2017-01-19T13:42:05.062Z,1033.94
2017-01-19T13:43:15.363Z,1033.96
2017-01-19T13:44:25.249Z,1033.88
2017-01-19T13:45:35.148Z,1033.89
2017-01-19T13:46:45.424Z,1033.87
2017-01-19T13:47:56.113Z,1033.81
2017-01-19T13:49:06.674Z,1033.84
2017-01-19T13:50:17.379Z,1033.86
2017-01-19T13:51:28.074Z,1033.85
2017-01-19T13:52:37.595Z,1033.88
2017-01-19T13:53:48.299Z,1033.84
2017-01-19T13:54:59.028Z,1033.83
2017-01-19T13:56:09.742Z,1033.85
2017-01-19T13:57:20.495Z,1033.85
2017-01-19T13:58:31.387Z,1033.81
2017-01-19T13:59:41.297Z,1033.75
2017-01-19T14:00:51.997Z,1033.73
2017-01-19T14:02:02.697Z,1033.76
2017-01-19T14:03:13.019Z,1033.78
2017-01-19T14:04:23.722Z,1033.72
2017-01-19T14:05:34.411Z,1033.78
2017-01-19T14:06:45.109Z,1033.76
2017-01-19T14:07:55.408Z,1033.72
2017-01-19T14:09:05.712Z,1033.75
2017-01-19T14:10:14.826Z,1033.73
2017-01-19T14:11:25.131Z,1033.8